Time;durP1;ratioP1;P1;durP2;ratioP2;P2;SDS_P1;SDS_P2;PMS_P1;PMS_P2;Temp;Humidity;BMP_temperature;BMP_pressure;BME280_temperature;BME280_humidity;BME280_pressure;Samples;Min_cycle;Max_cycle;Signal;HPM_P1;HPM_P2
2021/05/02 00:02:10;;;;;;;39.38;20.55;;;;;;;23.54;59.41;99048.75;5044160;28;20490;-39
2021/05/02 00:04:35;;;;;;;31.00;19.13;;;;;;;23.65;59.24;99058.28;5032687;28;20046;-38
2021/05/02 00:07:02;;;;;;;30.38;17.25;;;;;;;23.25;60.25;99071.63;5044221;28;20029;-38
2021/05/02 00:09:29;;;;;;;29.65;16.75;;;;;;;23.32;60.07;99084.78;5038436;28;20021;-39
2021/05/02 00:11:55;;;;;;;28.20;16.70;;;;;;;23.34;59.88;99074.44;5036412;28;20049;-39
2021/05/02 00:14:20;;;;;;;30.67;14.43;;;;;;;23.51;59.30;99073.78;5045601;28;20039;-38
2021/05/02 00:16:46;;;;;;;24.10;14.15;;;;;;;23.49;59.28;99065.16;5032715;28;20016;-39
2021/05/02 00:19:11;;;;;;;30.00;13.38;;;;;;;23.38;59.57;99067.28;5042522;28;20047;-38
2021/05/02 00:21:37;;;;;;;25.63;13.45;;;;;;;23.50;59.35;99069.47;5039551;28;20021;-38
2021/05/02 00:24:03;;;;;;;24.17;13.00;;;;;;;23.51;59.35;99082.72;5017523;28;20508;-37
2021/05/02 00:26:29;;;;;;;21.23;12.85;;;;;;;23.56;59.17;99104.34;5045356;28;20460;-38
2021/05/02 00:28:55;;;;;;;25.40;13.77;;;;;;;23.54;59.54;99078.63;5036068;28;20024;-38
2021/05/02 00:31:21;;;;;;;24.40;13.05;;;;;;;22.39;62.58;99059.44;5043284;28;20416;-38
2021/05/02 00:33:46;;;;;;;21.95;12.35;;;;;;;22.83;61.40;99111.50;5026480;28;20036;-38
2021/05/02 00:36:12;;;;;;;46.35;26.95;;;;;;;22.79;61.61;99073.34;5037775;28;20022;-38
2021/05/02 00:38:39;;;;;;;97.65;66.88;;;;;;;21.71;64.42;99039.09;5049120;28;20072;-38
2021/05/02 00:41:06;;;;;;;102.82;66.00;;;;;;;22.06;63.40;99058.59;5037262;28;20024;-39
2021/05/02 00:43:52;;;;;;;95.47;58.17;;;;;;;22.36;62.86;99073.56;5043024;28;20108;-39
2021/05/02 00:46:18;;;;;;;83.47;57.17;;;;;;;22.52;61.73;99048.88;5040980;28;20040;-38
2021/05/02 00:48:53;;;;;;;52.00;33.00;;;;;;;22.44;62.24;99044.97;5033206;28;20025;-38
2021/05/02 00:51:18;;;;;;;45.60;27.58;;;;;;;22.84;61.02;99045.28;5039948;28;20032;-38
2021/05/02 00:53:53;;;;;;;47.78;26.98;;;;;;;22.99;61.03;99033.34;5023709;28;20058;-38
2021/05/02 00:56:23;;;;;;;40.05;22.48;;;;;;;23.00;61.09;99032.25;5048463;28;20033;-39
2021/05/02 00:59:00;;;;;;;32.08;17.67;;;;;;;22.69;61.84;99032.84;5019604;28;20024;-38
2021/05/02 01:01:26;;;;;;;28.50;15.32;;;;;;;22.79;61.69;99020.97;5051178;28;20087;-38
2021/05/02 01:03:51;;;;;;;31.63;13.35;;;;;;;22.88;61.30;99010.25;5038581;28;20033;-37
2021/05/02 01:06:21;;;;;;;24.30;12.20;;;;;;;22.58;61.98;99013.28;5048063;28;20035;-37
2021/05/02 01:08:49;;;;;;;26.83;12.88;;;;;;;22.42;62.90;99006.53;5036003;28;20055;-38
2021/05/02 01:11:15;;;;;;;21.17;12.73;;;;;;;22.74;62.09;99010.25;5034069;28;20167;-38
2021/05/02 01:13:44;;;;;;;24.10;13.35;;;;;;;22.81;61.57;98997.91;5022884;28;20053;-39
2021/05/02 01:16:12;;;;;;;24.65;11.95;;;;;;;22.78;61.74;99009.34;5016543;28;20018;-38
2021/05/02 01:18:38;;;;;;;23.02;12.15;;;;;;;22.89;60.90;99007.22;5027127;28;20030;-38
2021/05/02 01:21:03;;;;;;;27.85;12.38;;;;;;;23.01;60.97;99006.72;5016283;28;20377;-38
2021/05/02 01:23:30;;;;;;;26.02;13.00;;;;;;;23.03;60.66;99004.53;5021633;28;20025;-37
2021/05/02 01:25:57;;;;;;;25.08;12.35;;;;;;;23.14;60.31;98996.97;5024810;28;20464;-38
2021/05/02 01:28:23;;;;;;;22.67;10.68;;;;;;;23.27;60.12;98989.91;5015567;28;20033;-38
2021/05/02 01:30:49;;;;;;;22.13;12.40;;;;;;;23.33;59.67;98997.63;5015475;28;20032;-38
2021/05/02 01:33:15;;;;;;;20.88;11.75;;;;;;;23.41;59.46;98999.59;5024996;28;20028;-38
2021/05/02 01:35:40;;;;;;;22.30;11.55;;;;;;;23.48;59.35;98992.97;5022664;28;20036;-38
2021/05/02 01:38:05;;;;;;;27.13;11.80;;;;;;;23.56;59.26;98994.94;5017901;28;20120;-37
2021/05/02 01:40:31;;;;;;;25.40;12.25;;;;;;;23.53;58.99;98976.53;5027843;28;20029;-38
2021/05/02 01:42:56;;;;;;;24.60;11.60;;;;;;;23.36;59.71;98979.91;5011870;28;20076;-39
2021/05/02 01:45:22;;;;;;;24.77;11.25;;;;;;;23.43;59.36;98991.16;5019926;28;20492;-38
2021/05/02 01:47:53;;;;;;;22.25;11.50;;;;;;;23.44;59.66;98979.19;5019449;28;20497;-38
2021/05/02 01:50:19;;;;;;;24.10;11.82;;;;;;;23.55;59.55;98968.88;5011524;28;20466;-37
2021/05/02 01:52:46;;;;;;;24.67;12.75;;;;;;;22.54;62.70;98962.66;5028186;28;20076;-38
2021/05/02 01:55:13;;;;;;;21.35;12.07;;;;;;;22.50;62.56;98976.00;5018150;28;20438;-38
2021/05/02 01:57:38;;;;;;;27.00;12.50;;;;;;;22.66;61.96;98965.66;5020952;28;20029;-39
2021/05/02 02:00:09;;;;;;;22.58;11.23;;;;;;;22.63;62.01;98961.63;5011598;28;20430;-38
2021/05/02 02:02:34;;;;;;;24.52;11.50;;;;;;;22.86;61.02;98964.44;5027711;28;20148;-38
2021/05/02 02:04:59;;;;;;;21.85;11.82;;;;;;;23.11;60.16;98965.00;5014715;28;20022;-38
2021/05/02 02:07:25;;;;;;;26.77;12.15;;;;;;;23.07;59.91;98955.88;5004783;28;20021;-38
2021/05/02 02:09:51;;;;;;;21.10;13.35;;;;;;;22.74;60.54;98934.31;5023245;28;20029;-37
2021/05/02 02:12:17;;;;;;;23.23;13.27;;;;;;;22.60;61.68;98932.44;5023664;28;20080;-38
2021/05/02 02:14:42;;;;;;;28.77;14.88;;;;;;;22.78;60.91;98949.66;5049932;28;20107;-38
2021/05/02 02:17:08;;;;;;;27.75;14.55;;;;;;;22.82;60.92;98949.88;5044755;28;20466;-38
2021/05/02 02:19:34;;;;;;;39.35;25.67;;;;;;;22.89;60.60;98949.47;5040612;28;20040;-38
2021/05/02 02:22:00;;;;;;;43.90;27.50;;;;;;;23.01;59.98;98947.03;5037518;28;20026;-37
2021/05/02 02:24:44;;;;;;;58.90;39.28;;;;;;;23.05;59.37;98945.34;5047232;28;20025;-38
2021/05/02 02:27:10;;;;;;;75.20;48.95;;;;;;;23.10;58.53;98936.28;5036346;28;20024;-37
2021/05/02 02:29:43;;;;;;;71.40;49.33;;;;;;;22.81;59.11;98949.06;5039524;28;20320;-38
2021/05/02 02:32:09;;;;;;;84.15;54.03;;;;;;;22.87;59.02;98952.47;5043908;28;20349;-38
2021/05/02 02:34:35;;;;;;;76.05;54.08;;;;;;;22.74;58.96;98948.69;5034078;28;20021;-38
2021/05/02 02:37:01;;;;;;;78.97;51.78;;;;;;;22.95;58.25;98946.34;5024048;28;20032;-39
2021/05/02 02:39:27;;;;;;;63.75;40.63;;;;;;;22.80;58.34;98957.50;5038099;28;20104;-42
2021/05/02 02:41:52;;;;;;;52.60;34.83;;;;;;;22.96;57.71;98956.09;5020199;28;20033;-38
2021/05/02 02:44:18;;;;;;;52.55;34.53;;;;;;;23.02;57.29;98960.28;5028478;28;20032;-38
2021/05/02 02:46:48;;;;;;;51.92;34.40;;;;;;;23.07;57.50;98955.88;5016010;28;20020;-38
2021/05/02 02:49:14;;;;;;;54.65;33.58;;;;;;;23.18;56.85;98968.91;5037297;28;20473;-38
2021/05/02 02:51:40;;;;;;;46.67;31.13;;;;;;;23.20;57.02;98971.31;5039036;28;20032;-38
2021/05/02 02:54:07;;;;;;;45.78;26.63;;;;;;;23.13;57.18;98976.38;5044779;28;20106;-38
2021/05/02 02:56:32;;;;;;;43.58;24.98;;;;;;;23.11;57.19;98973.94;5032331;28;20108;-38
2021/05/02 02:59:02;;;;;;;41.25;26.80;;;;;;;23.12;57.52;98974.78;5044221;28;20068;-38
2021/05/02 03:01:27;;;;;;;48.78;28.58;;;;;;;22.98;58.27;98981.00;5039194;28;20021;-37
2021/05/02 03:03:54;;;;;;;39.45;23.67;;;;;;;23.07;57.49;98975.66;5037110;28;20067;-38
2021/05/02 03:06:20;;;;;;;42.35;25.80;;;;;;;22.96;58.04;98975.06;5030150;28;20554;-38
2021/05/02 03:08:47;;;;;;;39.15;22.80;;;;;;;22.99;58.13;98981.78;5033085;28;20024;-37
2021/05/02 03:11:13;;;;;;;40.97;22.73;;;;;;;23.02;58.06;98982.00;5041705;28;20357;-39
2021/05/02 03:13:38;;;;;;;37.25;21.48;;;;;;;23.08;57.58;98984.63;5012236;28;20519;-38
2021/05/02 03:16:04;;;;;;;42.13;21.55;;;;;;;23.13;57.54;98998.06;5026237;28;20025;-39
2021/05/02 03:18:41;;;;;;;32.88;20.67;;;;;;;22.96;57.58;98996.78;5032523;28;20477;-39
2021/05/02 03:21:07;;;;;;;35.25;20.65;;;;;;;23.06;57.70;98998.50;5035078;28;20079;-38
2021/05/02 03:23:37;;;;;;;37.53;20.27;;;;;;;23.13;57.49;99006.22;5038795;28;20021;-38
2021/05/02 03:26:05;;;;;;;37.63;20.58;;;;;;;23.07;57.87;99007.44;5043755;28;20441;-38
2021/05/02 03:28:33;;;;;;;37.97;19.77;;;;;;;23.09;57.88;99011.44;5032225;28;20025;-38
2021/05/02 03:31:00;;;;;;;28.58;17.92;;;;;;;23.09;57.52;99007.94;5033288;28;20599;-38
2021/05/02 03:33:25;;;;;;;40.92;19.40;;;;;;;23.01;57.66;99012.94;5039956;28;20021;-39
2021/05/02 03:35:51;;;;;;;32.05;18.65;;;;;;;23.08;57.62;99017.19;5024086;28;20032;-38
2021/05/02 03:38:42;;;;;;;29.15;15.73;;;;;;;23.10;58.20;99010.34;5013102;28;20037;-39
2021/05/02 03:41:07;;;;;;;;;;;;;;;23.20;57.92;98990.31;5022692;28;20106;-36
2021/05/02 03:43:35;;;;;;;29.13;16.58;;;;;;;22.98;57.81;99001.88;5038794;28;20005;-38
2021/05/02 03:46:00;;;;;;;36.15;16.77;;;;;;;22.95;58.28;99003.31;5042772;28;20421;-39
2021/05/02 03:48:25;;;;;;;32.28;16.23;;;;;;;22.87;58.58;99023.00;5033021;28;20021;-38
2021/05/02 03:50:51;;;;;;;32.70;16.38;;;;;;;22.90;58.57;99030.53;5045874;28;20452;-38
2021/05/02 03:53:16;;;;;;;33.55;17.92;;;;;;;23.00;58.50;99027.63;5037358;28;20013;-38
2021/05/02 03:55:44;;;;;;;34.63;17.20;;;;;;;22.91;58.42;99026.72;5038541;28;20120;-38
2021/05/02 03:58:13;;;;;;;33.08;16.83;;;;;;;22.98;58.48;99029.84;5044302;28;20025;-38
2021/05/02 04:00:39;;;;;;;;;;;;;;;23.25;58.32;99032.81;5033445;28;20021;-38
2021/05/02 04:03:04;;;;;;;33.38;15.85;;;;;;;23.03;58.84;99018.88;5045326;28;20339;-38
2021/05/02 04:05:30;;;;;;;32.33;15.52;;;;;;;23.08;58.72;99033.47;5042494;28;20040;-38
2021/05/02 04:07:55;;;;;;;42.92;23.10;;;;;;;22.88;59.43;99029.22;5040595;28;20021;-37
2021/05/02 04:10:21;;;;;;;44.22;24.95;;;;;;;22.94;59.24;99028.84;5049683;28;20048;-38
2021/05/02 04:12:46;;;;;;;32.58;19.25;;;;;;;23.06;58.84;99036.50;5034894;28;20055;-38
2021/05/02 04:15:12;;;;;;;28.23;15.73;;;;;;;23.07;58.87;99040.78;5046734;28;20017;-38
2021/05/02 04:17:38;;;;;;;32.10;14.23;;;;;;;23.08;58.19;99033.47;5032141;28;20075;-39
2021/05/02 04:20:04;;;;;;;25.58;12.98;;;;;;;22.89;58.99;99045.22;5046974;28;20025;-39
2021/05/02 04:22:30;;;;;;;25.38;12.27;;;;;;;22.96;58.48;99037.47;5036813;28;20127;-38
2021/05/02 04:24:56;;;;;;;20.70;11.93;;;;;;;23.12;58.14;99045.31;5048505;28;20059;-38
2021/05/02 04:27:21;;;;;;;19.60;11.80;;;;;;;23.17;57.77;99048.72;5041319;28;20063;-38
2021/05/02 04:29:47;;;;;;;19.50;11.10;;;;;;;23.17;57.62;99037.06;5041164;28;20134;-38
2021/05/02 04:32:12;;;;;;;24.33;11.30;;;;;;;23.13;57.28;99036.88;5048335;28;20472;-37
2021/05/02 04:34:38;;;;;;;25.63;13.13;;;;;;;23.10;57.60;99033.97;5036239;28;20025;-37
2021/05/02 04:37:03;;;;;;;33.45;18.20;;;;;;;23.14;57.49;99033.03;5047163;28;20068;-38
2021/05/02 04:39:29;;;;;;;39.00;22.02;;;;;;;23.06;57.33;99041.91;5041909;28;20154;-38
2021/05/02 04:41:55;;;;;;;20.05;12.32;;;;;;;23.12;57.17;99040.69;5039976;28;20025;-38
2021/05/02 04:44:21;;;;;;;24.23;11.13;;;;;;;23.06;57.31;99027.56;5048805;28;20044;-39
2021/05/02 04:46:46;;;;;;;22.33;11.70;;;;;;;23.15;57.19;99039.28;5035170;28;20108;-38
2021/05/02 04:49:12;;;;;;;25.70;12.02;;;;;;;23.23;57.18;99033.16;5038271;28;20052;-38
2021/05/02 04:51:37;;;;;;;18.85;11.10;;;;;;;23.29;57.25;99034.63;5042206;28;20461;-37
2021/05/02 04:54:04;;;;;;;23.88;11.10;;;;;;;23.36;57.06;99020.63;5046383;28;20033;-38
2021/05/02 04:56:29;;;;;;;24.98;11.65;;;;;;;23.42;56.33;99011.28;5051326;28;20039;-38
2021/05/02 04:58:55;;;;;;;23.40;11.23;;;;;;;23.54;55.88;98992.53;5036871;28;20021;-37
2021/05/02 05:01:20;;;;;;;22.38;10.77;;;;;;;23.64;55.95;98996.91;5044242;28;20025;-38
2021/05/02 05:03:46;;;;;;;20.13;10.75;;;;;;;24.26;54.47;99004.38;5043554;28;20036;-38
2021/05/02 05:06:12;;;;;;;23.80;10.63;;;;;;;24.84;53.30;99005.25;5035719;28;20065;-37
2021/05/02 05:08:38;;;;;;;24.60;12.68;;;;;;;25.26;52.18;98986.63;5048480;28;20025;-39
2021/05/02 05:11:04;;;;;;;56.60;34.38;;;;;;;25.83;50.46;98977.44;5032141;28;20028;-38
2021/05/02 05:13:29;;;;;;;28.67;13.45;;;;;;;25.97;49.72;98979.22;5041138;28;20053;-38
2021/05/02 05:15:58;;;;;;;24.45;10.50;;;;;;;25.79;50.24;98981.16;5038021;28;20029;-38
2021/05/02 05:18:25;;;;;;;20.70;8.77;;;;;;;26.15;48.39;98975.31;5048396;28;20045;-37
2021/05/02 05:20:51;;;;;;;16.50;8.57;;;;;;;26.12;48.30;98989.59;5035684;28;20025;-37
2021/05/02 05:23:16;;;;;;;16.27;8.25;;;;;;;26.21;47.55;98990.38;5044685;28;20145;-38
2021/05/02 05:25:42;;;;;;;18.73;8.45;;;;;;;26.68;47.56;98995.03;5042785;28;20107;-39
2021/05/02 05:28:07;;;;;;;18.55;8.80;;;;;;;27.27;46.61;98991.50;5037165;28;20478;-38
2021/05/02 05:30:33;;;;;;;16.30;9.00;;;;;;;27.30;46.67;98972.50;5048048;28;20404;-39
2021/05/02 05:33:11;;;;;;;18.90;9.00;;;;;;;26.55;47.75;98960.56;5037044;28;20112;-38
2021/05/02 05:35:37;;;;;;;22.02;8.80;;;;;;;27.37;46.36;98974.69;5041073;28;20021;-39
2021/05/02 05:38:03;;;;;;;20.67;8.15;;;;;;;28.06;44.27;98966.97;5044649;28;20029;-38
2021/05/02 05:40:28;;;;;;;16.60;7.70;;;;;;;27.99;43.59;98964.81;5028988;28;20505;-38
2021/05/02 05:42:54;;;;;;;21.38;8.07;;;;;;;28.03;43.08;98962.19;5032736;28;20698;-38
2021/05/02 05:45:20;;;;;;;17.80;7.15;;;;;;;28.26;42.87;98962.56;5043399;28;20086;-37
2021/05/02 05:47:46;;;;;;;19.80;7.68;;;;;;;28.63;42.12;98957.13;5034055;28;20018;-37
2021/05/02 05:50:14;;;;;;;15.38;7.13;;;;;;;28.97;40.56;98971.47;5031421;28;20028;-38
2021/05/02 05:52:40;;;;;;;18.23;6.85;;;;;;;29.04;40.86;98971.69;5049936;28;20017;-37
2021/05/02 05:55:06;;;;;;;17.80;7.25;;;;;;;29.67;39.77;98979.38;5050912;28;20013;-38
2021/05/02 05:57:32;;;;;;;20.70;7.47;;;;;;;29.19;40.06;98981.97;5041548;28;20307;-38
2021/05/02 05:59:57;;;;;;;17.20;7.15;;;;;;;30.00;38.51;98989.28;5044475;28;20463;-38
2021/05/02 06:02:23;;;;;;;19.25;6.93;;;;;;;30.83;37.17;98994.09;5034631;28;20493;-39
2021/05/02 06:04:48;;;;;;;12.13;6.15;;;;;;;30.82;37.00;99001.53;5047389;28;20390;-39
2021/05/02 06:07:14;;;;;;;20.20;6.50;;;;;;;30.84;36.13;99006.66;5038078;28;20025;-39
2021/05/02 06:09:39;;;;;;;18.70;5.07;;;;;;;30.93;34.22;98997.09;5040317;28;20374;-38
2021/05/02 06:12:05;;;;;;;14.68;5.72;;;;;;;30.87;35.36;99000.47;5025908;28;20056;-38
2021/05/02 06:14:31;;;;;;;17.13;6.43;;;;;;;30.85;35.59;99002.78;5048706;28;20095;-38
2021/05/02 06:16:56;;;;;;;20.42;6.13;;;;;;;31.03;34.99;98998.50;5028359;28;20500;-39
2021/05/02 06:19:21;;;;;;;16.52;5.50;;;;;;;31.67;33.84;98979.81;5042933;28;20079;-39
2021/05/02 06:21:47;;;;;;;16.33;5.70;;;;;;;32.00;33.35;98974.91;5042556;28;20025;-38
2021/05/02 06:24:12;;;;;;;20.15;6.60;;;;;;;31.70;33.85;98970.03;5035413;28;20358;-38
2021/05/02 06:26:38;;;;;;;15.02;5.40;;;;;;;31.95;33.92;98976.03;5032931;28;20025;-38
2021/05/02 06:29:03;;;;;;;15.80;5.63;;;;;;;32.23;33.35;98975.75;5050571;28;20025;-39
2021/05/02 06:31:29;;;;;;;14.27;5.75;;;;;;;32.72;32.99;98985.19;5041514;28;20370;-38
2021/05/02 06:33:54;;;;;;;14.20;6.03;;;;;;;33.25;32.56;98989.91;5030825;28;20025;-38
2021/05/02 06:36:20;;;;;;;17.42;5.63;;;;;;;32.64;32.56;98987.06;5030707;28;20436;-39
2021/05/02 06:38:45;;;;;;;22.98;11.35;;;;;;;31.96;34.16;98986.66;5033941;28;20017;-37
2021/05/02 06:41:11;;;;;;;18.27;6.68;;;;;;;31.48;34.60;98986.13;5043831;28;20021;-38
2021/05/02 06:43:36;;;;;;;13.10;5.90;;;;;;;31.70;34.14;98986.53;5031835;28;20070;-51
2021/05/02 06:46:02;;;;;;;14.30;6.22;;;;;;;31.96;34.42;98988.59;5043995;28;20029;-51
2021/05/02 06:48:27;;;;;;;18.88;6.38;;;;;;;32.43;33.98;98987.47;5033389;28;20055;-52
2021/05/02 06:50:53;;;;;;;18.50;6.40;;;;;;;32.61;33.43;98985.03;5046031;28;20021;-51
2021/05/02 06:53:18;;;;;;;17.77;6.38;;;;;;;31.61;34.81;98981.28;5038004;28;20017;-52
2021/05/02 06:55:44;;;;;;;19.00;6.05;;;;;;;31.07;36.15;98996.66;5038873;28;20014;-51
2021/05/02 06:58:10;;;;;;;17.05;6.10;;;;;;;31.51;36.07;99014.84;5045136;28;20048;-54
2021/05/02 07:00:37;;;;;;;15.63;6.60;;;;;;;31.30;36.32;99012.41;5033657;28;20030;-52
2021/05/02 07:03:02;;;;;;;21.73;7.43;;;;;;;31.79;35.41;99002.81;5044252;28;20078;-39
2021/05/02 07:05:28;;;;;;;17.90;7.22;;;;;;;32.02;35.27;99011.16;5038912;28;20479;-39
2021/05/02 07:07:54;;;;;;;20.77;6.88;;;;;;;31.95;34.98;99001.56;5050276;28;20036;-39
2021/05/02 07:10:19;;;;;;;16.52;6.07;;;;;;;31.73;35.35;98992.13;5050710;28;20013;-38
2021/05/02 07:12:45;;;;;;;18.02;6.10;;;;;;;31.35;36.22;98998.41;5034190;28;20044;-38
2021/05/02 07:15:11;;;;;;;18.60;6.32;;;;;;;30.95;36.83;98997.53;5042588;28;20021;-39
2021/05/02 07:17:36;;;;;;;20.48;6.68;;;;;;;31.11;36.11;98988.44;5029405;28;20029;-39
2021/05/02 07:20:03;;;;;;;17.52;6.50;;;;;;;30.87;36.28;98978.50;5044559;28;20027;-39
2021/05/02 07:22:30;;;;;;;20.23;6.68;;;;;;;30.81;36.66;98997.19;5034037;28;20029;-39
2021/05/02 07:24:55;;;;;;;13.05;6.00;;;;;;;30.84;37.05;99012.16;5049363;28;20083;-39
2021/05/02 07:27:21;;;;;;;14.60;5.72;;;;;;;30.50;37.75;98996.09;5038174;28;20056;-39
2021/05/02 07:29:46;;;;;;;15.45;5.88;;;;;;;30.49;36.87;99008.22;5033742;28;20025;-39
2021/05/02 07:32:12;;;;;;;19.55;6.45;;;;;;;30.15;37.65;99001.44;5035409;28;20033;-39
2021/05/02 07:34:37;;;;;;;15.77;6.05;;;;;;;30.20;37.72;99009.41;5046700;28;20488;-38
2021/05/02 07:37:03;;;;;;;21.67;6.25;;;;;;;30.46;37.15;98995.19;5034596;28;20472;-39
2021/05/02 07:39:28;;;;;;;18.27;5.78;;;;;;;29.55;38.75;98985.72;5049598;28;20033;-38
2021/05/02 07:41:54;;;;;;;16.42;5.40;;;;;;;29.91;37.98;99008.66;5037104;28;20026;-38
2021/05/02 07:44:20;;;;;;;21.92;5.50;;;;;;;30.00;37.47;99001.06;5046033;28;20024;-38
2021/05/02 07:46:45;;;;;;;16.58;5.32;;;;;;;29.81;38.39;98992.72;5032954;28;20373;-38
2021/05/02 07:49:11;;;;;;;14.80;5.18;;;;;;;30.14;37.77;98973.22;5029749;28;20030;-38
2021/05/02 07:51:36;;;;;;;14.63;5.43;;;;;;;30.05;37.43;98971.81;5040001;28;20104;-38
2021/05/02 07:54:02;;;;;;;14.95;5.43;;;;;;;29.68;38.72;98966.47;5035762;28;20070;-39
2021/05/02 07:56:27;;;;;;;14.13;5.28;;;;;;;30.17;37.36;98936.84;5046032;28;20032;-39
2021/05/02 07:58:53;;;;;;;15.50;5.00;;;;;;;29.40;38.63;98935.19;5033952;28;20024;-39
2021/05/02 08:01:18;;;;;;;19.95;5.00;;;;;;;29.90;37.62;98924.78;5041826;28;20025;-39
2021/05/02 08:03:44;;;;;;;13.55;4.55;;;;;;;29.95;38.10;98894.38;5041042;28;20101;-39
2021/05/02 08:06:09;;;;;;;18.20;5.15;;;;;;;30.67;36.21;98926.25;5049555;28;20598;-39
2021/05/02 08:08:35;;;;;;;13.75;4.78;;;;;;;30.83;35.17;98941.94;5047505;28;20036;-38
2021/05/02 08:11:00;;;;;;;17.85;6.82;;;;;;;30.24;35.64;98938.97;5034486;28;20021;-39
2021/05/02 08:13:25;;;;;;;14.80;5.28;;;;;;;30.16;35.67;98948.97;5040423;28;20045;-38
2021/05/02 08:15:51;;;;;;;17.13;4.45;;;;;;;30.32;36.36;98967.41;5041433;28;20036;-39
2021/05/02 08:18:16;;;;;;;14.80;4.85;;;;;;;30.30;35.14;98954.00;5033416;28;20024;-39
2021/05/02 08:20:42;;;;;;;17.27;4.85;;;;;;;30.00;36.38;98943.47;5045479;28;20026;-39
2021/05/02 08:23:08;;;;;;;17.65;5.20;;;;;;;29.87;36.51;98950.16;5035424;28;20024;-39
2021/05/02 08:25:33;;;;;;;14.40;4.53;;;;;;;30.21;36.14;98959.69;5039390;28;20013;-39
2021/05/02 08:27:59;;;;;;;17.67;6.03;;;;;;;31.12;35.12;98968.88;5042727;28;20102;-40
2021/05/02 08:30:24;;;;;;;13.20;4.43;;;;;;;31.10;34.73;98976.69;5032688;28;20028;-38
2021/05/02 08:32:50;;;;;;;14.93;4.70;;;;;;;31.26;33.91;98975.81;5049417;28;20044;-39
2021/05/02 08:35:16;;;;;;;18.45;4.60;;;;;;;31.13;33.64;98975.97;5042051;28;20018;-38
2021/05/02 08:37:41;;;;;;;13.00;4.60;;;;;;;31.24;33.89;98980.88;5040016;28;20025;-39
2021/05/02 08:40:09;;;;;;;14.75;4.53;;;;;;;31.33;33.72;98975.97;5034360;28;20037;-38
2021/05/02 08:42:35;;;;;;;13.05;4.40;;;;;;;31.67;33.59;98974.31;5045671;28;20071;-38
2021/05/02 08:45:01;;;;;;;13.63;4.55;;;;;;;31.94;33.60;98977.19;5033095;28;20108;-38
2021/05/02 08:47:27;;;;;;;16.98;4.72;;;;;;;32.45;32.99;98976.91;5039961;28;20020;-38
2021/05/02 08:49:53;;;;;;;12.52;4.45;;;;;;;32.82;33.10;98998.31;5042589;28;20029;-38
2021/05/02 08:52:19;;;;;;;14.40;4.38;;;;;;;33.03;32.52;98992.31;5036213;28;20448;-39
2021/05/02 08:54:45;;;;;;;13.93;4.55;;;;;;;33.19;32.30;99005.19;5048735;28;20477;-39
2021/05/02 08:57:12;;;;;;;12.40;4.82;;;;;;;32.95;32.55;99001.66;5039272;28;20116;-39
2021/05/02 08:59:37;;;;;;;13.70;4.95;;;;;;;32.71;32.98;99008.38;5042057;28;20025;-39
2021/05/02 09:02:03;;;;;;;13.18;4.82;;;;;;;32.42;33.61;99018.91;5046465;28;20480;-39
2021/05/02 09:04:28;;;;;;;19.08;5.07;;;;;;;31.74;34.54;99009.44;5035700;28;20036;-39
2021/05/02 09:06:54;;;;;;;16.50;4.95;;;;;;;32.61;33.26;99012.56;5046743;28;20025;-39
2021/05/02 09:09:19;;;;;;;16.02;5.00;;;;;;;32.91;32.48;99012.63;5039616;28;20017;-39
2021/05/02 09:11:46;;;;;;;14.35;5.65;;;;;;;32.64;33.07;99036.63;5033446;28;20045;-40
2021/05/02 09:14:19;;;;;;;17.92;5.75;;;;;;;32.78;33.54;99030.53;5047097;28;20095;-39
2021/05/02 09:16:46;;;;;;;15.50;5.75;;;;;;;32.61;32.75;99020.81;5035406;28;20025;-39
2021/05/02 09:19:12;;;;;;;15.55;5.57;;;;;;;32.21;33.86;99015.81;5044924;28;20031;-38
2021/05/02 09:21:37;;;;;;;19.80;5.55;;;;;;;31.75;34.45;99016.50;5042431;28;20025;-38
2021/05/02 09:24:07;;;;;;;19.05;5.88;;;;;;;31.91;34.67;99016.41;5037586;28;20033;-39
2021/05/02 09:26:33;;;;;;;19.88;5.60;;;;;;;31.91;34.29;99014.47;5033496;28;20045;-39
2021/05/02 09:29:03;;;;;;;13.98;5.50;;;;;;;32.10;34.01;99013.66;5045603;28;20164;-39
2021/05/02 09:31:31;;;;;;;17.00;5.50;;;;;;;31.32;35.56;99007.34;5041295;28;20029;-39
2021/05/02 09:34:13;;;;;;;17.40;6.25;;;;;;;31.44;35.90;98998.97;5038635;28;20036;-39
2021/05/02 09:37:02;;;;;;;18.75;7.68;;;;;;;31.83;35.29;99003.69;5048550;28;20060;-39
2021/05/02 09:39:50;;;;;;;20.20;9.47;;;;;;;31.35;36.32;99007.44;5040948;28;20025;-39
2021/05/02 09:42:18;;;;;;;16.10;5.72;;;;;;;31.12;36.38;99001.84;5035891;28;20103;-38
2021/05/02 09:44:57;;;;;;;15.30;6.05;;;;;;;30.74;36.02;98986.03;5048228;28;20029;-40
2021/05/02 09:47:31;;;;;;;14.48;5.38;;;;;;;31.10;35.56;98987.66;5034099;28;20033;-42
2021/05/02 09:50:05;;;;;;;16.65;5.78;;;;;;;30.61;35.53;98979.84;5031681;28;20037;-40
2021/05/02 09:52:41;;;;;;;18.00;5.75;;;;;;;31.01;35.14;98964.31;5046549;28;20485;-40
2021/05/02 09:55:41;;;;;;;17.80;6.32;;;;;;;31.17;35.77;98963.09;5038308;28;20396;-38
2021/05/02 09:58:10;;;;;;;14.90;6.40;;;;;;;31.49;35.88;98962.19;5037300;28;20052;-39
2021/05/02 10:00:51;;;;;;;15.50;6.28;;;;;;;32.06;35.28;98944.03;5047421;28;20119;-41
2021/05/02 10:03:17;;;;;;;14.48;6.45;;;;;;;32.33;34.52;98938.56;5039244;28;20052;-39
2021/05/02 10:05:58;;;;;;;15.75;5.72;;;;;;;32.12;35.00;98947.25;5039978;28;20488;-39
2021/05/02 10:08:31;;;;;;;14.32;5.70;;;;;;;32.08;33.53;98940.88;5047752;28;20473;-42
2021/05/02 10:10:58;;;;;;;20.70;6.28;;;;;;;31.66;33.96;98942.50;5036363;28;20075;-38
2021/05/02 10:13:23;;;;;;;20.27;6.13;;;;;;;31.87;34.44;98930.28;5051218;28;20143;-41
2021/05/02 10:15:49;;;;;;;15.98;6.03;;;;;;;32.43;33.68;98926.91;5051232;28;20029;-40
2021/05/02 10:18:14;;;;;;;14.93;5.60;;;;;;;32.64;32.96;98931.19;5034584;28;20092;-39
2021/05/02 10:20:44;;;;;;;17.33;6.05;;;;;;;32.83;32.38;98933.03;5047717;28;20473;-42
2021/05/02 10:23:10;;;;;;;15.05;6.05;;;;;;;32.86;32.30;98932.28;5038310;28;20013;-42
2021/05/02 10:25:38;;;;;;;20.38;6.30;;;;;;;32.87;32.37;98926.38;5040902;28;20065;-37
2021/05/02 10:28:04;;;;;;;16.95;6.38;;;;;;;32.97;32.25;98927.69;5045253;28;20100;-42
2021/05/02 10:30:36;;;;;;;14.82;5.95;;;;;;;33.01;32.44;98917.50;5033021;28;20036;-40
2021/05/02 10:33:09;;;;;;;17.40;6.15;;;;;;;32.95;32.59;98916.25;5044511;28;20026;-39
2021/05/02 10:36:28;;;;;;;17.83;5.60;;;;;;;33.02;32.01;98910.84;5041135;28;20051;-41
2021/05/02 10:38:54;;;;;;;16.33;5.65;;;;;;;33.14;31.54;98898.81;4994669;28;20466;-39
2021/05/02 10:41:34;;;;;;;16.95;6.13;;;;;;;33.54;31.27;98896.50;5025700;28;20029;-42
2021/05/02 10:44:12;;;;;;;14.10;5.97;;;;;;;33.72;30.62;98883.72;5037450;28;20029;-39
2021/05/02 10:46:43;;;;;;;14.65;5.40;;;;;;;33.86;30.43;98880.28;5047137;28;20044;-37
2021/05/02 10:49:09;;;;;;;17.17;5.68;;;;;;;33.78;29.65;98893.22;5024028;28;20031;-41
2021/05/02 10:51:35;;;;;;;15.13;5.65;;;;;;;34.24;29.75;98879.03;5040609;28;20539;-41
2021/05/02 10:54:07;;;;;;;15.77;5.45;;;;;;;34.57;29.57;98874.47;5043062;28;20045;-41
2021/05/02 10:56:49;;;;;;;18.38;5.65;;;;;;;34.57;28.83;98874.47;5034117;28;20226;-39
2021/05/02 10:59:15;;;;;;;14.20;4.93;;;;;;;34.91;28.14;98866.00;5050619;28;20135;-42
2021/05/02 11:01:41;;;;;;;17.48;5.70;;;;;;;35.65;28.07;98869.38;5039660;28;20021;-41
2021/05/02 11:04:07;;;;;;;15.70;5.72;;;;;;;36.05;27.66;98872.19;5030611;28;20029;-39
2021/05/02 11:06:38;;;;;;;15.13;5.20;;;;;;;36.46;26.22;98872.56;5030582;28;20461;-40
2021/05/02 11:09:07;;;;;;;15.85;5.20;;;;;;;36.65;25.08;98873.28;5036483;28;20042;-38
2021/05/02 11:11:39;;;;;;;13.02;4.95;;;;;;;36.09;25.39;98862.69;5040132;28;20029;-40
2021/05/02 11:14:08;;;;;;;14.90;5.97;;;;;;;35.57;27.49;98865.81;5044070;28;20056;-40
2021/05/02 11:16:37;;;;;;;18.83;5.45;;;;;;;35.65;27.82;98866.63;5033799;28;20087;-38
2021/05/02 11:19:03;;;;;;;17.52;5.45;;;;;;;35.32;28.21;98863.00;5044366;28;20037;-42
2021/05/02 11:21:52;;;;;;;15.70;5.20;;;;;;;36.24;26.85;98860.72;5039465;28;20074;-41
2021/05/02 11:24:51;;;;;;;12.30;5.40;;;;;;;35.54;28.44;98860.28;5028525;28;20047;-41